sensor_id;sensor_type;location;lat;lon;timestamp;P1;durP1;ratioP1;P2;durP2;ratioP2
4323;SDS011;2175;51.018;6.994;2023-05-28T00:00:09;16.23;;;7.73;;
4323;SDS011;2175;51.018;6.994;2023-05-28T00:02:36;14.20;;;8.13;;
4323;SDS011;2175;51.018;6.994;2023-05-28T00:05:02;13.83;;;8.33;;
4323;SDS011;2175;51.018;6.994;2023-05-28T00:07:29;18.17;;;8.50;;
4323;SDS011;2175;51.018;6.994;2023-05-28T00:09:55;12.60;;;7.70;;
4323;SDS011;2175;51.018;6.994;2023-05-28T00:12:21;18.63;;;9.27;;
4323;SDS011;2175;51.018;6.994;2023-05-28T00:14:47;13.43;;;9.20;;
4323;SDS011;2175;51.018;6.994;2023-05-28T00:17:13;18.10;;;8.93;;
4323;SDS011;2175;51.018;6.994;2023-05-28T00:19:40;16.30;;;8.73;;
4323;SDS011;2175;51.018;6.994;2023-05-28T00:22:06;17.63;;;8.57;;
4323;SDS011;2175;51.018;6.994;2023-05-28T00:24:33;18.80;;;9.33;;
4323;SDS011;2175;51.018;6.994;2023-05-28T00:26:58;20.57;;;9.33;;
4323;SDS011;2175;51.018;6.994;2023-05-28T00:29:24;15.03;;;8.83;;
4323;SDS011;2175;51.018;6.994;2023-05-28T00:31:52;13.77;;;8.63;;
4323;SDS011;2175;51.018;6.994;2023-05-28T00:34:20;22.47;;;9.17;;
4323;SDS011;2175;51.018;6.994;2023-05-28T00:36:47;12.93;;;8.07;;
4323;SDS011;2175;51.018;6.994;2023-05-28T00:39:14;16.90;;;9.20;;
4323;SDS011;2175;51.018;6.994;2023-05-28T00:41:41;14.30;;;7.97;;
4323;SDS011;2175;51.018;6.994;2023-05-28T00:44:06;13.73;;;8.53;;
4323;SDS011;2175;51.018;6.994;2023-05-28T00:46:34;16.23;;;8.70;;
4323;SDS011;2175;51.018;6.994;2023-05-28T00:49:01;14.73;;;8.90;;
4323;SDS011;2175;51.018;6.994;2023-05-28T00:51:27;17.40;;;9.90;;
4323;SDS011;2175;51.018;6.994;2023-05-28T00:53:53;17.20;;;9.77;;
4323;SDS011;2175;51.018;6.994;2023-05-28T00:56:19;18.37;;;10.43;;
4323;SDS011;2175;51.018;6.994;2023-05-28T00:58:47;17.33;;;10.50;;
4323;SDS011;2175;51.018;6.994;2023-05-28T01:01:14;18.33;;;9.67;;
4323;SDS011;2175;51.018;6.994;2023-05-28T01:03:40;21.73;;;11.20;;
4323;SDS011;2175;51.018;6.994;2023-05-28T01:06:06;30.13;;;11.33;;
4323;SDS011;2175;51.018;6.994;2023-05-28T01:08:39;15.30;;;9.63;;
4323;SDS011;2175;51.018;6.994;2023-05-28T01:11:07;19.30;;;9.70;;
4323;SDS011;2175;51.018;6.994;2023-05-28T01:13:36;15.97;;;9.83;;
4323;SDS011;2175;51.018;6.994;2023-05-28T01:16:03;19.43;;;10.90;;
4323;SDS011;2175;51.018;6.994;2023-05-28T01:18:29;16.53;;;9.97;;
4323;SDS011;2175;51.018;6.994;2023-05-28T01:20:56;17.23;;;9.00;;
4323;SDS011;2175;51.018;6.994;2023-05-28T01:23:29;20.20;;;10.60;;
4323;SDS011;2175;51.018;6.994;2023-05-28T01:25:57;15.90;;;10.07;;
4323;SDS011;2175;51.018;6.994;2023-05-28T01:28:24;15.90;;;10.20;;
4323;SDS011;2175;51.018;6.994;2023-05-28T01:30:49;20.10;;;10.83;;
4323;SDS011;2175;51.018;6.994;2023-05-28T01:33:16;26.40;;;10.30;;
4323;SDS011;2175;51.018;6.994;2023-05-28T01:35:43;16.60;;;9.80;;
4323;SDS011;2175;51.018;6.994;2023-05-28T01:38:09;15.97;;;10.10;;
4323;SDS011;2175;51.018;6.994;2023-05-28T01:40:38;20.63;;;9.60;;
4323;SDS011;2175;51.018;6.994;2023-05-28T01:43:06;14.27;;;9.33;;
4323;SDS011;2175;51.018;6.994;2023-05-28T01:45:32;15.30;;;9.10;;
4323;SDS011;2175;51.018;6.994;2023-05-28T01:47:58;14.43;;;9.60;;
4323;SDS011;2175;51.018;6.994;2023-05-28T01:50:24;18.23;;;10.00;;
4323;SDS011;2175;51.018;6.994;2023-05-28T01:52:50;14.00;;;9.20;;
4323;SDS011;2175;51.018;6.994;2023-05-28T01:55:16;14.53;;;9.10;;
4323;SDS011;2175;51.018;6.994;2023-05-28T01:57:42;17.00;;;9.13;;
4323;SDS011;2175;51.018;6.994;2023-05-28T02:00:07;16.07;;;9.37;;
4323;SDS011;2175;51.018;6.994;2023-05-28T02:02:35;12.60;;;8.43;;
4323;SDS011;2175;51.018;6.994;2023-05-28T02:05:01;14.23;;;8.43;;
4323;SDS011;2175;51.018;6.994;2023-05-28T02:07:27;20.40;;;8.67;;
4323;SDS011;2175;51.018;6.994;2023-05-28T02:09:52;16.10;;;9.00;;
4323;SDS011;2175;51.018;6.994;2023-05-28T02:12:18;19.87;;;10.20;;
4323;SDS011;2175;51.018;6.994;2023-05-28T02:14:44;13.87;;;8.47;;
4323;SDS011;2175;51.018;6.994;2023-05-28T02:17:10;16.27;;;9.00;;
4323;SDS011;2175;51.018;6.994;2023-05-28T02:19:37;20.00;;;10.10;;
4323;SDS011;2175;51.018;6.994;2023-05-28T02:22:03;13.90;;;9.23;;
4323;SDS011;2175;51.018;6.994;2023-05-28T02:24:35;17.00;;;9.83;;
4323;SDS011;2175;51.018;6.994;2023-05-28T02:27:01;12.67;;;9.40;;
4323;SDS011;2175;51.018;6.994;2023-05-28T02:29:28;16.97;;;10.77;;
4323;SDS011;2175;51.018;6.994;2023-05-28T02:31:54;17.40;;;9.53;;
4323;SDS011;2175;51.018;6.994;2023-05-28T02:34:20;23.53;;;11.27;;
4323;SDS011;2175;51.018;6.994;2023-05-28T02:36:45;21.20;;;9.53;;
4323;SDS011;2175;51.018;6.994;2023-05-28T02:39:11;17.20;;;9.70;;
4323;SDS011;2175;51.018;6.994;2023-05-28T02:41:36;23.03;;;11.20;;
4323;SDS011;2175;51.018;6.994;2023-05-28T02:44:02;16.37;;;10.67;;
4323;SDS011;2175;51.018;6.994;2023-05-28T02:46:28;20.67;;;11.30;;
4323;SDS011;2175;51.018;6.994;2023-05-28T02:48:53;16.83;;;9.93;;
4323;SDS011;2175;51.018;6.994;2023-05-28T02:51:19;16.60;;;10.40;;
4323;SDS011;2175;51.018;6.994;2023-05-28T02:53:45;20.30;;;10.47;;
4323;SDS011;2175;51.018;6.994;2023-05-28T02:56:10;16.43;;;9.87;;
4323;SDS011;2175;51.018;6.994;2023-05-28T02:58:36;14.23;;;9.50;;
4323;SDS011;2175;51.018;6.994;2023-05-28T03:01:02;15.53;;;9.93;;
4323;SDS011;2175;51.018;6.994;2023-05-28T03:03:28;15.37;;;8.97;;
4323;SDS011;2175;51.018;6.994;2023-05-28T03:05:53;16.50;;;9.60;;
4323;SDS011;2175;51.018;6.994;2023-05-28T03:08:19;17.70;;;9.83;;
4323;SDS011;2175;51.018;6.994;2023-05-28T03:10:45;18.27;;;9.47;;
4323;SDS011;2175;51.018;6.994;2023-05-28T03:13:11;16.10;;;10.23;;
4323;SDS011;2175;51.018;6.994;2023-05-28T03:15:36;14.17;;;9.13;;
4323;SDS011;2175;51.018;6.994;2023-05-28T03:18:02;13.93;;;10.30;;
4323;SDS011;2175;51.018;6.994;2023-05-28T03:20:28;15.23;;;9.43;;
4323;SDS011;2175;51.018;6.994;2023-05-28T03:22:55;15.83;;;9.40;;
4323;SDS011;2175;51.018;6.994;2023-05-28T03:25:22;17.40;;;9.87;;
4323;SDS011;2175;51.018;6.994;2023-05-28T03:27:49;19.40;;;9.50;;
4323;SDS011;2175;51.018;6.994;2023-05-28T03:30:15;17.80;;;9.27;;
4323;SDS011;2175;51.018;6.994;2023-05-28T03:32:40;13.73;;;9.07;;
4323;SDS011;2175;51.018;6.994;2023-05-28T03:35:06;17.00;;;10.27;;
4323;SDS011;2175;51.018;6.994;2023-05-28T03:37:32;17.43;;;8.97;;
4323;SDS011;2175;51.018;6.994;2023-05-28T03:39:58;12.60;;;8.67;;
4323;SDS011;2175;51.018;6.994;2023-05-28T03:42:24;13.30;;;8.50;;
4323;SDS011;2175;51.018;6.994;2023-05-28T03:44:52;15.93;;;8.93;;
4323;SDS011;2175;51.018;6.994;2023-05-28T03:47:17;14.77;;;8.80;;
4323;SDS011;2175;51.018;6.994;2023-05-28T03:49:44;14.13;;;8.83;;
4323;SDS011;2175;51.018;6.994;2023-05-28T03:52:09;15.23;;;9.30;;
4323;SDS011;2175;51.018;6.994;2023-05-28T03:54:35;12.40;;;8.60;;
4323;SDS011;2175;51.018;6.994;2023-05-28T03:57:01;16.50;;;9.33;;
4323;SDS011;2175;51.018;6.994;2023-05-28T03:59:27;16.83;;;9.17;;
4323;SDS011;2175;51.018;6.994;2023-05-28T04:01:52;15.00;;;9.20;;
4323;SDS011;2175;51.018;6.994;2023-05-28T04:04:18;15.23;;;9.80;;
4323;SDS011;2175;51.018;6.994;2023-05-28T04:06:44;17.27;;;9.43;;
4323;SDS011;2175;51.018;6.994;2023-05-28T04:09:09;13.80;;;8.80;;
4323;SDS011;2175;51.018;6.994;2023-05-28T04:11:35;17.33;;;10.20;;
4323;SDS011;2175;51.018;6.994;2023-05-28T04:14:02;15.90;;;9.97;;
4323;SDS011;2175;51.018;6.994;2023-05-28T04:16:28;15.40;;;9.03;;
4323;SDS011;2175;51.018;6.994;2023-05-28T04:18:54;16.50;;;9.17;;
4323;SDS011;2175;51.018;6.994;2023-05-28T04:21:20;14.00;;;9.13;;
4323;SDS011;2175;51.018;6.994;2023-05-28T04:23:46;13.03;;;8.70;;
4323;SDS011;2175;51.018;6.994;2023-05-28T04:26:12;14.47;;;8.70;;
4323;SDS011;2175;51.018;6.994;2023-05-28T04:28:39;16.60;;;9.63;;
4323;SDS011;2175;51.018;6.994;2023-05-28T04:31:06;19.67;;;8.73;;
4323;SDS011;2175;51.018;6.994;2023-05-28T04:33:31;18.53;;;9.40;;
4323;SDS011;2175;51.018;6.994;2023-05-28T04:35:58;14.63;;;8.73;;
4323;SDS011;2175;51.018;6.994;2023-05-28T04:38:24;13.90;;;9.00;;
4323;SDS011;2175;51.018;6.994;2023-05-28T04:40:54;13.00;;;8.93;;
4323;SDS011;2175;51.018;6.994;2023-05-28T04:43:20;14.53;;;8.83;;
4323;SDS011;2175;51.018;6.994;2023-05-28T04:45:52;17.20;;;9.20;;
4323;SDS011;2175;51.018;6.994;2023-05-28T04:48:18;13.20;;;8.33;;
4323;SDS011;2175;51.018;6.994;2023-05-28T04:50:44;16.33;;;8.70;;
4323;SDS011;2175;51.018;6.994;2023-05-28T04:53:10;16.40;;;9.33;;
4323;SDS011;2175;51.018;6.994;2023-05-28T04:55:35;26.23;;;9.00;;
4323;SDS011;2175;51.018;6.994;2023-05-28T04:58:01;21.47;;;9.47;;
4323;SDS011;2175;51.018;6.994;2023-05-28T05:00:26;15.47;;;8.90;;
4323;SDS011;2175;51.018;6.994;2023-05-28T05:02:56;13.57;;;7.83;;
4323;SDS011;2175;51.018;6.994;2023-05-28T05:05:25;13.20;;;8.10;;
4323;SDS011;2175;51.018;6.994;2023-05-28T05:07:51;13.73;;;8.60;;
4323;SDS011;2175;51.018;6.994;2023-05-28T05:10:17;15.90;;;8.50;;
4323;SDS011;2175;51.018;6.994;2023-05-28T05:12:43;10.97;;;8.40;;
4323;SDS011;2175;51.018;6.994;2023-05-28T05:15:08;14.90;;;8.70;;
4323;SDS011;2175;51.018;6.994;2023-05-28T05:17:34;14.00;;;8.67;;
4323;SDS011;2175;51.018;6.994;2023-05-28T05:20:00;16.60;;;8.73;;
4323;SDS011;2175;51.018;6.994;2023-05-28T05:22:30;14.73;;;8.53;;
4323;SDS011;2175;51.018;6.994;2023-05-28T05:24:56;19.47;;;9.03;;
4323;SDS011;2175;51.018;6.994;2023-05-28T05:27:22;13.67;;;8.67;;
4323;SDS011;2175;51.018;6.994;2023-05-28T05:29:47;20.03;;;9.30;;
4323;SDS011;2175;51.018;6.994;2023-05-28T05:32:13;14.87;;;8.63;;
4323;SDS011;2175;51.018;6.994;2023-05-28T05:34:39;18.47;;;8.67;;
4323;SDS011;2175;51.018;6.994;2023-05-28T05:37:04;13.43;;;9.13;;
4323;SDS011;2175;51.018;6.994;2023-05-28T05:39:30;14.50;;;9.17;;
4323;SDS011;2175;51.018;6.994;2023-05-28T05:41:56;16.57;;;8.57;;
4323;SDS011;2175;51.018;6.994;2023-05-28T05:44:22;16.23;;;9.03;;
4323;SDS011;2175;51.018;6.994;2023-05-28T05:46:47;19.67;;;8.73;;
4323;SDS011;2175;51.018;6.994;2023-05-28T05:49:13;14.87;;;8.90;;
4323;SDS011;2175;51.018;6.994;2023-05-28T05:51:39;17.77;;;9.30;;
4323;SDS011;2175;51.018;6.994;2023-05-28T05:54:05;17.93;;;9.07;;
4323;SDS011;2175;51.018;6.994;2023-05-28T05:56:31;23.47;;;10.03;;
4323;SDS011;2175;51.018;6.994;2023-05-28T05:58:57;17.27;;;8.00;;
4323;SDS011;2175;51.018;6.994;2023-05-28T06:01:23;18.57;;;8.70;;
4323;SDS011;2175;51.018;6.994;2023-05-28T06:03:49;11.60;;;7.97;;
4323;SDS011;2175;51.018;6.994;2023-05-28T06:06:15;13.67;;;7.63;;
4323;SDS011;2175;51.018;6.994;2023-05-28T06:08:41;15.70;;;8.17;;
4323;SDS011;2175;51.018;6.994;2023-05-28T06:11:07;13.70;;;7.50;;
4323;SDS011;2175;51.018;6.994;2023-05-28T06:13:33;10.73;;;6.93;;
4323;SDS011;2175;51.018;6.994;2023-05-28T06:16:00;11.60;;;7.23;;
4323;SDS011;2175;51.018;6.994;2023-05-28T06:18:28;14.23;;;7.10;;
4323;SDS011;2175;51.018;6.994;2023-05-28T06:20:54;21.33;;;7.53;;
4323;SDS011;2175;51.018;6.994;2023-05-28T06:23:20;13.60;;;7.80;;
4323;SDS011;2175;51.018;6.994;2023-05-28T06:25:46;11.53;;;7.27;;
4323;SDS011;2175;51.018;6.994;2023-05-28T06:28:12;15.83;;;7.67;;
4323;SDS011;2175;51.018;6.994;2023-05-28T06:30:38;16.27;;;7.37;;
4323;SDS011;2175;51.018;6.994;2023-05-28T06:33:05;15.80;;;7.47;;
4323;SDS011;2175;51.018;6.994;2023-05-28T06:35:31;17.90;;;7.47;;
4323;SDS011;2175;51.018;6.994;2023-05-28T06:37:56;16.40;;;6.90;;
4323;SDS011;2175;51.018;6.994;2023-05-28T06:40:22;11.93;;;6.60;;
4323;SDS011;2175;51.018;6.994;2023-05-28T06:42:48;12.70;;;6.70;;
4323;SDS011;2175;51.018;6.994;2023-05-28T06:45:14;14.03;;;7.67;;
4323;SDS011;2175;51.018;6.994;2023-05-28T06:47:40;12.53;;;6.47;;
4323;SDS011;2175;51.018;6.994;2023-05-28T06:50:06;12.43;;;6.17;;
4323;SDS011;2175;51.018;6.994;2023-05-28T06:52:31;13.83;;;6.50;;
4323;SDS011;2175;51.018;6.994;2023-05-28T06:54:57;9.80;;;6.17;;
4323;SDS011;2175;51.018;6.994;2023-05-28T06:57:22;14.30;;;6.80;;
4323;SDS011;2175;51.018;6.994;2023-05-28T06:59:48;13.70;;;6.47;;
4323;SDS011;2175;51.018;6.994;2023-05-28T07:02:14;14.90;;;7.30;;
4323;SDS011;2175;51.018;6.994;2023-05-28T07:04:40;17.13;;;7.23;;
4323;SDS011;2175;51.018;6.994;2023-05-28T07:07:07;11.43;;;6.33;;
4323;SDS011;2175;51.018;6.994;2023-05-28T07:09:51;13.47;;;6.53;;
4323;SDS011;2175;51.018;6.994;2023-05-28T07:12:37;12.30;;;6.47;;
4323;SDS011;2175;51.018;6.994;2023-05-28T07:15:03;9.70;;;5.43;;
4323;SDS011;2175;51.018;6.994;2023-05-28T07:17:31;11.73;;;6.53;;
4323;SDS011;2175;51.018;6.994;2023-05-28T07:19:57;10.77;;;5.57;;
4323;SDS011;2175;51.018;6.994;2023-05-28T07:22:22;14.73;;;6.77;;
4323;SDS011;2175;51.018;6.994;2023-05-28T07:24:49;8.40;;;5.00;;
4323;SDS011;2175;51.018;6.994;2023-05-28T07:27:15;13.73;;;5.80;;
4323;SDS011;2175;51.018;6.994;2023-05-28T07:29:41;15.33;;;5.70;;
4323;SDS011;2175;51.018;6.994;2023-05-28T07:32:07;14.07;;;5.33;;
4323;SDS011;2175;51.018;6.994;2023-05-28T07:34:32;13.03;;;5.67;;
4323;SDS011;2175;51.018;6.994;2023-05-28T07:36:58;14.43;;;6.07;;
4323;SDS011;2175;51.018;6.994;2023-05-28T07:39:23;15.40;;;6.47;;
4323;SDS011;2175;51.018;6.994;2023-05-28T07:41:49;13.87;;;6.27;;
4323;SDS011;2175;51.018;6.994;2023-05-28T07:44:15;14.23;;;6.70;;
4323;SDS011;2175;51.018;6.994;2023-05-28T07:46:42;14.10;;;7.20;;
4323;SDS011;2175;51.018;6.994;2023-05-28T07:49:07;16.97;;;6.60;;
4323;SDS011;2175;51.018;6.994;2023-05-28T07:51:33;14.73;;;6.20;;
4323;SDS011;2175;51.018;6.994;2023-05-28T07:53:58;11.80;;;5.90;;
4323;SDS011;2175;51.018;6.994;2023-05-28T07:56:24;10.07;;;6.00;;
4323;SDS011;2175;51.018;6.994;2023-05-28T07:58:52;13.30;;;6.43;;
4323;SDS011;2175;51.018;6.994;2023-05-28T08:01:18;13.23;;;6.60;;
4323;SDS011;2175;51.018;6.994;2023-05-28T08:03:43;23.60;;;7.10;;
4323;SDS011;2175;51.018;6.994;2023-05-28T08:06:13;9.87;;;5.47;;
4323;SDS011;2175;51.018;6.994;2023-05-28T08:08:56;12.57;;;5.77;;
4323;SDS011;2175;51.018;6.994;2023-05-28T08:11:22;12.50;;;5.93;;
4323;SDS011;2175;51.018;6.994;2023-05-28T08:16:38;13.83;;;5.70;;
4323;SDS011;2175;51.018;6.994;2023-05-28T08:19:04;11.43;;;5.30;;
4323;SDS011;2175;51.018;6.994;2023-05-28T08:21:31;15.20;;;6.27;;
4323;SDS011;2175;51.018;6.994;2023-05-28T08:23:56;15.37;;;6.17;;
4323;SDS011;2175;51.018;6.994;2023-05-28T08:26:22;10.87;;;6.40;;
4323;SDS011;2175;51.018;6.994;2023-05-28T08:28:49;19.47;;;7.17;;
4323;SDS011;2175;51.018;6.994;2023-05-28T08:31:14;11.60;;;5.50;;
4323;SDS011;2175;51.018;6.994;2023-05-28T08:33:41;12.57;;;5.90;;
4323;SDS011;2175;51.018;6.994;2023-05-28T08:36:06;16.80;;;6.73;;
4323;SDS011;2175;51.018;6.994;2023-05-28T08:38:32;13.63;;;5.87;;
4323;SDS011;2175;51.018;6.994;2023-05-28T08:40:58;11.40;;;5.60;;
4323;SDS011;2175;51.018;6.994;2023-05-28T08:43:25;12.43;;;5.53;;
4323;SDS011;2175;51.018;6.994;2023-05-28T08:45:53;6.10;;;4.77;;
4323;SDS011;2175;51.018;6.994;2023-05-28T08:48:18;10.27;;;5.53;;
4323;SDS011;2175;51.018;6.994;2023-05-28T08:50:46;9.43;;;5.50;;
4323;SDS011;2175;51.018;6.994;2023-05-28T08:53:15;12.67;;;5.30;;
4323;SDS011;2175;51.018;6.994;2023-05-28T08:55:47;13.23;;;5.63;;
4323;SDS011;2175;51.018;6.994;2023-05-28T08:58:13;15.23;;;6.53;;
4323;SDS011;2175;51.018;6.994;2023-05-28T09:00:39;16.83;;;6.87;;
4323;SDS011;2175;51.018;6.994;2023-05-28T09:03:05;13.40;;;6.30;;
4323;SDS011;2175;51.018;6.994;2023-05-28T09:05:36;12.17;;;5.57;;
4323;SDS011;2175;51.018;6.994;2023-05-28T09:08:06;12.60;;;5.00;;
4323;SDS011;2175;51.018;6.994;2023-05-28T09:10:36;10.80;;;4.83;;
4323;SDS011;2175;51.018;6.994;2023-05-28T09:13:03;10.30;;;6.00;;
4323;SDS011;2175;51.018;6.994;2023-05-28T09:15:32;13.13;;;6.53;;
4323;SDS011;2175;51.018;6.994;2023-05-28T09:18:03;11.43;;;5.50;;
4323;SDS011;2175;51.018;6.994;2023-05-28T09:20:30;10.70;;;5.13;;
4323;SDS011;2175;51.018;6.994;2023-05-28T09:23:00;13.03;;;5.70;;
4323;SDS011;2175;51.018;6.994;2023-05-28T09:25:33;8.50;;;4.40;;
4323;SDS011;2175;51.018;6.994;2023-05-28T09:28:01;8.43;;;4.93;;
4323;SDS011;2175;51.018;6.994;2023-05-28T09:30:28;10.20;;;4.63;;
4323;SDS011;2175;51.018;6.994;2023-05-28T09:33:01;7.33;;;4.00;;
4323;SDS011;2175;51.018;6.994;2023-05-28T09:35:28;8.70;;;4.63;;
4323;SDS011;2175;51.018;6.994;2023-05-28T09:38:08;13.73;;;4.60;;
4323;SDS011;2175;51.018;6.994;2023-05-28T09:40:40;7.17;;;4.37;;
4323;SDS011;2175;51.018;6.994;2023-05-28T09:43:10;5.73;;;4.47;;
4323;SDS011;2175;51.018;6.994;2023-05-28T09:45:36;6.07;;;4.00;;
4323;SDS011;2175;51.018;6.994;2023-05-28T09:48:02;8.20;;;4.17;;
4323;SDS011;2175;51.018;6.994;2023-05-28T09:50:29;5.77;;;4.00;;
4323;SDS011;2175;51.018;6.994;2023-05-28T09:52:55;9.90;;;4.20;;
4323;SDS011;2175;51.018;6.994;2023-05-28T09:55:24;6.97;;;4.00;;
4323;SDS011;2175;51.018;6.994;2023-05-28T09:58:01;7.50;;;4.13;;
4323;SDS011;2175;51.018;6.994;2023-05-28T10:00:52;8.13;;;4.30;;
4323;SDS011;2175;51.018;6.994;2023-05-28T10:06:08;5.80;;;4.00;;
4323;SDS011;2175;51.018;6.994;2023-05-28T10:08:36;10.10;;;4.23;;
4323;SDS011;2175;51.018;6.994;2023-05-28T10:11:05;8.67;;;4.37;;
4323;SDS011;2175;51.018;6.994;2023-05-28T10:13:34;6.57;;;4.07;;
4323;SDS011;2175;51.018;6.994;2023-05-28T10:16:00;8.37;;;4.83;;
4323;SDS011;2175;51.018;6.994;2023-05-28T10:18:26;9.80;;;4.13;;
4323;SDS011;2175;51.018;6.994;2023-05-28T10:20:52;6.40;;;4.60;;
4323;SDS011;2175;51.018;6.994;2023-05-28T10:23:18;7.40;;;4.07;;
4323;SDS011;2175;51.018;6.994;2023-05-28T10:25:45;7.70;;;4.37;;
4323;SDS011;2175;51.018;6.994;2023-05-28T10:28:14;6.73;;;4.23;;
4323;SDS011;2175;51.018;6.994;2023-05-28T10:30:40;10.17;;;5.10;;
4323;SDS011;2175;51.018;6.994;2023-05-28T10:33:16;7.93;;;4.60;;
4323;SDS011;2175;51.018;6.994;2023-05-28T10:35:51;9.70;;;4.80;;
4323;SDS011;2175;51.018;6.994;2023-05-28T10:38:18;7.67;;;4.10;;
4323;SDS011;2175;51.018;6.994;2023-05-28T10:40:44;8.33;;;4.60;;
4323;SDS011;2175;51.018;6.994;2023-05-28T10:43:39;6.07;;;4.13;;
4323;SDS011;2175;51.018;6.994;2023-05-28T10:46:08;6.17;;;4.00;;
4323;SDS011;2175;51.018;6.994;2023-05-28T10:48:38;5.47;;;4.30;;
4323;SDS011;2175;51.018;6.994;2023-05-28T10:51:05;6.40;;;3.87;;
4323;SDS011;2175;51.018;6.994;2023-05-28T10:53:30;7.87;;;4.97;;
4323;SDS011;2175;51.018;6.994;2023-05-28T10:55:56;9.57;;;4.67;;
4323;SDS011;2175;51.018;6.994;2023-05-28T10:58:32;5.83;;;4.30;;
4323;SDS011;2175;51.018;6.994;2023-05-28T11:01:00;10.70;;;4.47;;
4323;SDS011;2175;51.018;6.994;2023-05-28T11:03:42;6.37;;;4.13;;
4323;SDS011;2175;51.018;6.994;2023-05-28T11:06:26;9.97;;;4.63;;
4323;SDS011;2175;51.018;6.994;2023-05-28T11:08:52;8.40;;;4.90;;
4323;SDS011;2175;51.018;6.994;2023-05-28T11:11:18;13.03;;;4.90;;
4323;SDS011;2175;51.018;6.994;2023-05-28T11:13:44;7.77;;;4.53;;
4323;SDS011;2175;51.018;6.994;2023-05-28T11:16:11;8.60;;;4.83;;
4323;SDS011;2175;51.018;6.994;2023-05-28T11:18:38;9.97;;;4.80;;
4323;SDS011;2175;51.018;6.994;2023-05-28T11:21:04;10.40;;;4.97;;
4323;SDS011;2175;51.018;6.994;2023-05-28T11:23:32;8.70;;;4.77;;
4323;SDS011;2175;51.018;6.994;2023-05-28T11:25:59;6.90;;;4.67;;
4323;SDS011;2175;51.018;6.994;2023-05-28T11:28:24;5.33;;;4.30;;
4323;SDS011;2175;51.018;6.994;2023-05-28T11:30:51;7.40;;;4.70;;
4323;SDS011;2175;51.018;6.994;2023-05-28T11:33:17;7.17;;;4.60;;
4323;SDS011;2175;51.018;6.994;2023-05-28T11:35:42;10.07;;;5.20;;
4323;SDS011;2175;51.018;6.994;2023-05-28T11:38:08;10.17;;;5.40;;
4323;SDS011;2175;51.018;6.994;2023-05-28T11:40:34;7.77;;;4.43;;
4323;SDS011;2175;51.018;6.994;2023-05-28T11:43:00;8.23;;;4.63;;
4323;SDS011;2175;51.018;6.994;2023-05-28T11:45:26;7.03;;;4.07;;
4323;SDS011;2175;51.018;6.994;2023-05-28T11:47:52;9.73;;;5.20;;
4323;SDS011;2175;51.018;6.994;2023-05-28T11:50:19;8.93;;;4.90;;
4323;SDS011;2175;51.018;6.994;2023-05-28T11:52:45;8.20;;;4.77;;
4323;SDS011;2175;51.018;6.994;2023-05-28T11:55:11;8.40;;;5.60;;
4323;SDS011;2175;51.018;6.994;2023-05-28T11:57:49;9.10;;;5.10;;
4323;SDS011;2175;51.018;6.994;2023-05-28T12:00:31;6.90;;;4.53;;
4323;SDS011;2175;51.018;6.994;2023-05-28T12:02:59;8.13;;;4.93;;
4323;SDS011;2175;51.018;6.994;2023-05-28T12:05:25;7.47;;;4.77;;
4323;SDS011;2175;51.018;6.994;2023-05-28T12:07:51;9.20;;;5.00;;
4323;SDS011;2175;51.018;6.994;2023-05-28T12:10:18;7.17;;;4.77;;
4323;SDS011;2175;51.018;6.994;2023-05-28T12:15:12;12.47;;;4.97;;
4323;SDS011;2175;51.018;6.994;2023-05-28T12:17:39;7.03;;;4.70;;
4323;SDS011;2175;51.018;6.994;2023-05-28T12:20:06;8.83;;;4.90;;
4323;SDS011;2175;51.018;6.994;2023-05-28T12:22:59;7.57;;;4.60;;
4323;SDS011;2175;51.018;6.994;2023-05-28T12:25:25;7.03;;;4.50;;
4323;SDS011;2175;51.018;6.994;2023-05-28T12:27:51;5.90;;;4.23;;
4323;SDS011;2175;51.018;6.994;2023-05-28T12:30:16;8.30;;;4.80;;
4323;SDS011;2175;51.018;6.994;2023-05-28T12:32:42;9.13;;;4.63;;
4323;SDS011;2175;51.018;6.994;2023-05-28T12:35:08;4.57;;;4.17;;
4323;SDS011;2175;51.018;6.994;2023-05-28T12:37:33;7.30;;;5.00;;
4323;SDS011;2175;51.018;6.994;2023-05-28T12:39:59;12.90;;;4.53;;
4323;SDS011;2175;51.018;6.994;2023-05-28T12:42:25;7.07;;;5.13;;
4323;SDS011;2175;51.018;6.994;2023-05-28T12:44:50;9.23;;;4.87;;
4323;SDS011;2175;51.018;6.994;2023-05-28T12:47:16;7.90;;;5.10;;
4323;SDS011;2175;51.018;6.994;2023-05-28T12:49:42;7.00;;;4.70;;
4323;SDS011;2175;51.018;6.994;2023-05-28T12:52:07;10.23;;;4.83;;
4323;SDS011;2175;51.018;6.994;2023-05-28T12:54:33;8.30;;;5.33;;
4323;SDS011;2175;51.018;6.994;2023-05-28T12:56:59;5.97;;;4.50;;
4323;SDS011;2175;51.018;6.994;2023-05-28T12:59:25;8.43;;;4.83;;
4323;SDS011;2175;51.018;6.994;2023-05-28T13:01:52;10.93;;;5.50;;
4323;SDS011;2175;51.018;6.994;2023-05-28T13:04:19;5.40;;;3.93;;
4323;SDS011;2175;51.018;6.994;2023-05-28T13:06:46;8.63;;;4.87;;
4323;SDS011;2175;51.018;6.994;2023-05-28T13:09:12;9.30;;;4.97;;
4323;SDS011;2175;51.018;6.994;2023-05-28T13:11:39;6.17;;;4.20;;
4323;SDS011;2175;51.018;6.994;2023-05-28T13:14:05;10.03;;;5.10;;
4323;SDS011;2175;51.018;6.994;2023-05-28T13:16:31;8.93;;;5.10;;
4323;SDS011;2175;51.018;6.994;2023-05-28T13:18:56;9.37;;;5.17;;
4323;SDS011;2175;51.018;6.994;2023-05-28T13:21:22;7.17;;;4.37;;
4323;SDS011;2175;51.018;6.994;2023-05-28T13:23:48;10.10;;;5.47;;
4323;SDS011;2175;51.018;6.994;2023-05-28T13:26:13;8.70;;;5.13;;
4323;SDS011;2175;51.018;6.994;2023-05-28T13:28:39;7.60;;;5.20;;
4323;SDS011;2175;51.018;6.994;2023-05-28T13:31:05;5.63;;;4.40;;
4323;SDS011;2175;51.018;6.994;2023-05-28T13:33:30;8.60;;;4.80;;
4323;SDS011;2175;51.018;6.994;2023-05-28T13:35:56;8.07;;;5.30;;
4323;SDS011;2175;51.018;6.994;2023-05-28T13:38:22;6.70;;;4.77;;
4323;SDS011;2175;51.018;6.994;2023-05-28T13:40:47;10.30;;;4.73;;
4323;SDS011;2175;51.018;6.994;2023-05-28T13:43:13;9.90;;;5.17;;
4323;SDS011;2175;51.018;6.994;2023-05-28T13:45:39;7.83;;;4.60;;
4323;SDS011;2175;51.018;6.994;2023-05-28T13:48:05;6.60;;;4.97;;
4323;SDS011;2175;51.018;6.994;2023-05-28T13:50:32;6.30;;;4.93;;
4323;SDS011;2175;51.018;6.994;2023-05-28T13:52:58;8.53;;;5.40;;
4323;SDS011;2175;51.018;6.994;2023-05-28T13:55:24;7.93;;;5.20;;
4323;SDS011;2175;51.018;6.994;2023-05-28T13:57:51;6.57;;;4.80;;
4323;SDS011;2175;51.018;6.994;2023-05-28T14:00:17;8.77;;;4.83;;
4323;SDS011;2175;51.018;6.994;2023-05-28T14:02:42;7.33;;;4.83;;
4323;SDS011;2175;51.018;6.994;2023-05-28T14:05:08;9.07;;;5.10;;
4323;SDS011;2175;51.018;6.994;2023-05-28T14:07:34;8.03;;;4.53;;
4323;SDS011;2175;51.018;6.994;2023-05-28T14:10:00;7.80;;;5.17;;
4323;SDS011;2175;51.018;6.994;2023-05-28T14:12:26;10.23;;;5.40;;
4323;SDS011;2175;51.018;6.994;2023-05-28T14:14:52;5.80;;;4.43;;
4323;SDS011;2175;51.018;6.994;2023-05-28T14:17:18;6.77;;;4.70;;
4323;SDS011;2175;51.018;6.994;2023-05-28T14:19:43;13.33;;;5.03;;
4323;SDS011;2175;51.018;6.994;2023-05-28T14:22:10;9.03;;;4.93;;
4323;SDS011;2175;51.018;6.994;2023-05-28T14:24:35;7.87;;;4.63;;
4323;SDS011;2175;51.018;6.994;2023-05-28T14:27:01;6.90;;;4.60;;
4323;SDS011;2175;51.018;6.994;2023-05-28T14:29:28;8.27;;;5.13;;
4323;SDS011;2175;51.018;6.994;2023-05-28T14:31:53;7.43;;;4.80;;
4323;SDS011;2175;51.018;6.994;2023-05-28T14:34:19;9.77;;;4.87;;
4323;SDS011;2175;51.018;6.994;2023-05-28T14:36:45;7.37;;;3.97;;
4323;SDS011;2175;51.018;6.994;2023-05-28T14:39:10;6.30;;;3.97;;
4323;SDS011;2175;51.018;6.994;2023-05-28T14:41:36;7.00;;;4.60;;
4323;SDS011;2175;51.018;6.994;2023-05-28T14:44:01;7.00;;;4.03;;
4323;SDS011;2175;51.018;6.994;2023-05-28T14:46:27;6.93;;;4.10;;
4323;SDS011;2175;51.018;6.994;2023-05-28T14:48:53;8.33;;;4.53;;
4323;SDS011;2175;51.018;6.994;2023-05-28T14:51:18;11.33;;;3.83;;
4323;SDS011;2175;51.018;6.994;2023-05-28T14:53:44;7.77;;;4.53;;
4323;SDS011;2175;51.018;6.994;2023-05-28T14:56:09;9.40;;;4.40;;
4323;SDS011;2175;51.018;6.994;2023-05-28T14:58:35;6.50;;;4.33;;
4323;SDS011;2175;51.018;6.994;2023-05-28T15:01:01;5.13;;;3.97;;
4323;SDS011;2175;51.018;6.994;2023-05-28T15:03:30;6.33;;;4.00;;
4323;SDS011;2175;51.018;6.994;2023-05-28T15:05:56;6.10;;;4.50;;
4323;SDS011;2175;51.018;6.994;2023-05-28T15:08:22;7.00;;;4.40;;
4323;SDS011;2175;51.018;6.994;2023-05-28T15:10:48;5.80;;;4.27;;